sensor_id;sensor_type;location;lat;lon;timestamp;temperature;humidity
4052;DHT22;2040;50.924;11.604;2023-05-18T00:01:58;6.30;99.90
4052;DHT22;2040;50.924;11.604;2023-05-18T00:04:24;6.20;99.90
4052;DHT22;2040;50.924;11.604;2023-05-18T00:06:50;6.20;99.90
4052;DHT22;2040;50.924;11.604;2023-05-18T00:09:26;6.30;99.90
4052;DHT22;2040;50.924;11.604;2023-05-18T00:11:53;6.40;99.90
4052;DHT22;2040;50.924;11.604;2023-05-18T00:14:21;6.40;99.90
4052;DHT22;2040;50.924;11.604;2023-05-18T00:16:47;6.30;99.90
4052;DHT22;2040;50.924;11.604;2023-05-18T00:19:14;6.30;99.90
4052;DHT22;2040;50.924;11.604;2023-05-18T00:21:44;6.30;99.90
4052;DHT22;2040;50.924;11.604;2023-05-18T00:24:13;6.20;99.90
4052;DHT22;2040;50.924;11.604;2023-05-18T00:26:41;6.20;99.90
4052;DHT22;2040;50.924;11.604;2023-05-18T00:29:07;6.10;99.90
4052;DHT22;2040;50.924;11.604;2023-05-18T00:31:34;6.00;99.90
4052;DHT22;2040;50.924;11.604;2023-05-18T00:34:04;6.00;99.90
4052;DHT22;2040;50.924;11.604;2023-05-18T00:36:30;6.00;99.90
4052;DHT22;2040;50.924;11.604;2023-05-18T00:38:59;6.00;99.90
4052;DHT22;2040;50.924;11.604;2023-05-18T00:41:26;6.00;99.90
4052;DHT22;2040;50.924;11.604;2023-05-18T00:43:53;6.10;99.90
4052;DHT22;2040;50.924;11.604;2023-05-18T00:46:19;6.00;99.90
4052;DHT22;2040;50.924;11.604;2023-05-18T00:48:45;6.10;99.90
4052;DHT22;2040;50.924;11.604;2023-05-18T00:51:11;6.10;99.90
4052;DHT22;2040;50.924;11.604;2023-05-18T00:53:37;6.00;99.90
4052;DHT22;2040;50.924;11.604;2023-05-18T00:56:03;6.00;99.90
4052;DHT22;2040;50.924;11.604;2023-05-18T00:58:29;5.90;99.90
4052;DHT22;2040;50.924;11.604;2023-05-18T01:00:58;5.70;99.90
4052;DHT22;2040;50.924;11.604;2023-05-18T01:03:27;5.60;99.90
4052;DHT22;2040;50.924;11.604;2023-05-18T01:05:55;5.50;99.90
4052;DHT22;2040;50.924;11.604;2023-05-18T01:08:24;5.40;99.90
4052;DHT22;2040;50.924;11.604;2023-05-18T01:10:55;5.40;99.90
4052;DHT22;2040;50.924;11.604;2023-05-18T01:13:34;5.30;99.90
4052;DHT22;2040;50.924;11.604;2023-05-18T01:16:05;5.30;99.90
4052;DHT22;2040;50.924;11.604;2023-05-18T01:18:38;5.20;99.90
4052;DHT22;2040;50.924;11.604;2023-05-18T01:24:16;5.10;99.90
4052;DHT22;2040;50.924;11.604;2023-05-18T01:26:48;5.00;99.90
4052;DHT22;2040;50.924;11.604;2023-05-18T01:29:16;5.10;99.90
4052;DHT22;2040;50.924;11.604;2023-05-18T01:31:44;5.10;99.90
4052;DHT22;2040;50.924;11.604;2023-05-18T01:34:10;5.00;99.90
4052;DHT22;2040;50.924;11.604;2023-05-18T01:36:36;5.00;99.90
4052;DHT22;2040;50.924;11.604;2023-05-18T01:39:01;4.90;99.90
4052;DHT22;2040;50.924;11.604;2023-05-18T01:41:28;4.90;99.90
4052;DHT22;2040;50.924;11.604;2023-05-18T01:44:14;4.80;99.90
4052;DHT22;2040;50.924;11.604;2023-05-18T01:51:53;4.60;99.90
4052;DHT22;2040;50.924;11.604;2023-05-18T01:54:21;4.50;99.90
4052;DHT22;2040;50.924;11.604;2023-05-18T01:56:47;4.50;99.90
4052;DHT22;2040;50.924;11.604;2023-05-18T01:59:14;4.40;99.90
4052;DHT22;2040;50.924;11.604;2023-05-18T02:01:40;4.40;99.90
4052;DHT22;2040;50.924;11.604;2023-05-18T02:04:09;4.40;99.90
4052;DHT22;2040;50.924;11.604;2023-05-18T02:06:35;4.30;99.90
4052;DHT22;2040;50.924;11.604;2023-05-18T02:09:04;4.30;99.90
4052;DHT22;2040;50.924;11.604;2023-05-18T02:11:30;4.30;99.90
4052;DHT22;2040;50.924;11.604;2023-05-18T02:13:56;4.30;99.90
4052;DHT22;2040;50.924;11.604;2023-05-18T02:16:21;4.20;99.90
4052;DHT22;2040;50.924;11.604;2023-05-18T02:18:47;4.20;99.90
4052;DHT22;2040;50.924;11.604;2023-05-18T02:21:13;4.20;99.90
4052;DHT22;2040;50.924;11.604;2023-05-18T02:23:42;4.20;99.90
4052;DHT22;2040;50.924;11.604;2023-05-18T02:26:07;4.10;99.90
4052;DHT22;2040;50.924;11.604;2023-05-18T02:28:33;4.10;99.90
4052;DHT22;2040;50.924;11.604;2023-05-18T02:31:09;4.10;99.90
4052;DHT22;2040;50.924;11.604;2023-05-18T02:33:36;4.10;99.90
4052;DHT22;2040;50.924;11.604;2023-05-18T02:36:06;4.10;99.90
4052;DHT22;2040;50.924;11.604;2023-05-18T02:38:38;4.10;99.90
4052;DHT22;2040;50.924;11.604;2023-05-18T02:41:04;4.20;99.90
4052;DHT22;2040;50.924;11.604;2023-05-18T02:43:30;4.30;99.90
4052;DHT22;2040;50.924;11.604;2023-05-18T02:45:56;4.20;99.90
4052;DHT22;2040;50.924;11.604;2023-05-18T02:48:22;4.10;99.90
4052;DHT22;2040;50.924;11.604;2023-05-18T02:50:48;4.20;99.90
4052;DHT22;2040;50.924;11.604;2023-05-18T02:53:13;4.20;99.90
4052;DHT22;2040;50.924;11.604;2023-05-18T02:55:39;4.10;99.90
4052;DHT22;2040;50.924;11.604;2023-05-18T02:58:05;3.90;99.90
4052;DHT22;2040;50.924;11.604;2023-05-18T03:00:31;3.90;99.90
4052;DHT22;2040;50.924;11.604;2023-05-18T03:02:57;3.80;99.90
4052;DHT22;2040;50.924;11.604;2023-05-18T03:05:24;3.80;99.90
4052;DHT22;2040;50.924;11.604;2023-05-18T03:07:51;3.90;99.90
4052;DHT22;2040;50.924;11.604;2023-05-18T03:10:17;4.00;99.90
4052;DHT22;2040;50.924;11.604;2023-05-18T03:12:44;3.90;99.90
4052;DHT22;2040;50.924;11.604;2023-05-18T03:15:10;3.90;99.90
4052;DHT22;2040;50.924;11.604;2023-05-18T03:17:36;3.90;99.90
4052;DHT22;2040;50.924;11.604;2023-05-18T03:20:02;3.80;99.90
4052;DHT22;2040;50.924;11.604;2023-05-18T03:22:28;3.80;99.90
4052;DHT22;2040;50.924;11.604;2023-05-18T03:24:54;3.80;99.90
4052;DHT22;2040;50.924;11.604;2023-05-18T03:27:20;3.80;99.90
4052;DHT22;2040;50.924;11.604;2023-05-18T03:29:50;3.90;99.90
4052;DHT22;2040;50.924;11.604;2023-05-18T03:32:17;3.90;99.90
4052;DHT22;2040;50.924;11.604;2023-05-18T03:34:44;3.90;99.90
4052;DHT22;2040;50.924;11.604;2023-05-18T03:37:14;3.90;99.90
4052;DHT22;2040;50.924;11.604;2023-05-18T03:39:40;4.00;99.90
4052;DHT22;2040;50.924;11.604;2023-05-18T03:42:06;3.90;99.90
4052;DHT22;2040;50.924;11.604;2023-05-18T03:44:31;3.90;99.90
4052;DHT22;2040;50.924;11.604;2023-05-18T03:46:57;3.90;99.90
4052;DHT22;2040;50.924;11.604;2023-05-18T03:49:22;4.00;99.90
4052;DHT22;2040;50.924;11.604;2023-05-18T03:51:48;4.10;99.90
4052;DHT22;2040;50.924;11.604;2023-05-18T03:54:13;4.20;99.90
4052;DHT22;2040;50.924;11.604;2023-05-18T03:56:39;4.20;99.90
4052;DHT22;2040;50.924;11.604;2023-05-18T03:59:05;4.30;99.90
4052;DHT22;2040;50.924;11.604;2023-05-18T04:01:31;4.30;99.90
4052;DHT22;2040;50.924;11.604;2023-05-18T04:03:58;4.40;99.90
4052;DHT22;2040;50.924;11.604;2023-05-18T04:06:24;4.50;99.90
4052;DHT22;2040;50.924;11.604;2023-05-18T04:08:51;4.60;99.90
4052;DHT22;2040;50.924;11.604;2023-05-18T04:11:17;4.70;99.90
4052;DHT22;2040;50.924;11.604;2023-05-18T04:13:42;4.80;99.90
4052;DHT22;2040;50.924;11.604;2023-05-18T04:16:08;5.00;99.90
4052;DHT22;2040;50.924;11.604;2023-05-18T04:18:38;5.00;99.90
4052;DHT22;2040;50.924;11.604;2023-05-18T04:21:04;5.10;99.90
4052;DHT22;2040;50.924;11.604;2023-05-18T04:23:31;5.10;99.90
4052;DHT22;2040;50.924;11.604;2023-05-18T04:25:58;5.10;99.90
4052;DHT22;2040;50.924;11.604;2023-05-18T04:28:24;5.10;99.90
4052;DHT22;2040;50.924;11.604;2023-05-18T04:30:50;5.20;99.90
4052;DHT22;2040;50.924;11.604;2023-05-18T04:33:16;5.10;99.90
4052;DHT22;2040;50.924;11.604;2023-05-18T04:35:42;5.10;99.90
4052;DHT22;2040;50.924;11.604;2023-05-18T04:38:08;5.10;99.90
4052;DHT22;2040;50.924;11.604;2023-05-18T04:40:35;5.10;99.90
4052;DHT22;2040;50.924;11.604;2023-05-18T04:43:02;5.00;99.90
4052;DHT22;2040;50.924;11.604;2023-05-18T04:45:28;5.00;99.90
4052;DHT22;2040;50.924;11.604;2023-05-18T04:47:54;4.90;99.90
4052;DHT22;2040;50.924;11.604;2023-05-18T04:50:20;5.00;99.90
4052;DHT22;2040;50.924;11.604;2023-05-18T04:52:48;5.00;99.90
4052;DHT22;2040;50.924;11.604;2023-05-18T04:55:20;5.00;99.90
4052;DHT22;2040;50.924;11.604;2023-05-18T04:57:51;5.20;99.90
4052;DHT22;2040;50.924;11.604;2023-05-18T05:00:21;5.20;99.90
4052;DHT22;2040;50.924;11.604;2023-05-18T05:02:48;5.30;99.90
4052;DHT22;2040;50.924;11.604;2023-05-18T05:05:14;5.30;99.90
4052;DHT22;2040;50.924;11.604;2023-05-18T05:07:39;5.40;99.90
4052;DHT22;2040;50.924;11.604;2023-05-18T05:10:05;5.50;99.90
4052;DHT22;2040;50.924;11.604;2023-05-18T05:12:31;5.50;99.90
4052;DHT22;2040;50.924;11.604;2023-05-18T05:14:57;5.50;99.90
4052;DHT22;2040;50.924;11.604;2023-05-18T05:17:23;5.50;99.90
4052;DHT22;2040;50.924;11.604;2023-05-18T05:19:49;5.60;99.90
4052;DHT22;2040;50.924;11.604;2023-05-18T05:22:14;5.60;99.90
4052;DHT22;2040;50.924;11.604;2023-05-18T05:24:42;5.70;99.90
4052;DHT22;2040;50.924;11.604;2023-05-18T05:27:07;5.70;99.90
4052;DHT22;2040;50.924;11.604;2023-05-18T05:29:33;5.70;99.90
4052;DHT22;2040;50.924;11.604;2023-05-18T05:31:58;5.70;99.90
4052;DHT22;2040;50.924;11.604;2023-05-18T05:34:24;5.80;99.90
4052;DHT22;2040;50.924;11.604;2023-05-18T05:36:49;5.80;99.90
4052;DHT22;2040;50.924;11.604;2023-05-18T05:39:15;5.80;99.90
4052;DHT22;2040;50.924;11.604;2023-05-18T05:41:41;5.90;99.90
4052;DHT22;2040;50.924;11.604;2023-05-18T05:44:06;6.00;99.90
4052;DHT22;2040;50.924;11.604;2023-05-18T05:46:32;6.10;99.90
4052;DHT22;2040;50.924;11.604;2023-05-18T05:48:57;6.20;99.90
4052;DHT22;2040;50.924;11.604;2023-05-18T05:51:23;6.40;99.90
4052;DHT22;2040;50.924;11.604;2023-05-18T05:53:48;6.40;99.90
4052;DHT22;2040;50.924;11.604;2023-05-18T05:56:14;6.50;99.90
4052;DHT22;2040;50.924;11.604;2023-05-18T05:58:40;6.60;99.90
4052;DHT22;2040;50.924;11.604;2023-05-18T06:01:06;6.70;99.90
4052;DHT22;2040;50.924;11.604;2023-05-18T06:03:33;6.70;99.90
4052;DHT22;2040;50.924;11.604;2023-05-18T06:05:58;6.80;99.90
4052;DHT22;2040;50.924;11.604;2023-05-18T06:08:24;6.90;99.90
4052;DHT22;2040;50.924;11.604;2023-05-18T06:10:50;6.90;99.90
4052;DHT22;2040;50.924;11.604;2023-05-18T06:13:16;7.00;99.90
4052;DHT22;2040;50.924;11.604;2023-05-18T06:15:41;7.10;99.90
4052;DHT22;2040;50.924;11.604;2023-05-18T06:18:07;7.20;99.90
4052;DHT22;2040;50.924;11.604;2023-05-18T06:20:32;7.40;99.90
4052;DHT22;2040;50.924;11.604;2023-05-18T06:22:58;7.60;99.90
4052;DHT22;2040;50.924;11.604;2023-05-18T06:25:23;7.70;99.90
4052;DHT22;2040;50.924;11.604;2023-05-18T06:27:49;7.80;99.90
4052;DHT22;2040;50.924;11.604;2023-05-18T06:30:14;7.90;99.90
4052;DHT22;2040;50.924;11.604;2023-05-18T06:32:41;8.00;99.90
4052;DHT22;2040;50.924;11.604;2023-05-18T06:35:07;8.10;99.90
4052;DHT22;2040;50.924;11.604;2023-05-18T06:37:32;8.10;99.90
4052;DHT22;2040;50.924;11.604;2023-05-18T06:39:58;8.20;99.90
4052;DHT22;2040;50.924;11.604;2023-05-18T06:42:23;8.30;99.90
4052;DHT22;2040;50.924;11.604;2023-05-18T06:44:49;8.30;99.90
4052;DHT22;2040;50.924;11.604;2023-05-18T06:47:15;8.40;99.90
4052;DHT22;2040;50.924;11.604;2023-05-18T06:49:41;8.60;99.90
4052;DHT22;2040;50.924;11.604;2023-05-18T06:52:07;8.60;99.90
4052;DHT22;2040;50.924;11.604;2023-05-18T06:54:34;8.60;99.90
4052;DHT22;2040;50.924;11.604;2023-05-18T06:57:00;8.60;99.90
4052;DHT22;2040;50.924;11.604;2023-05-18T06:59:26;8.70;99.90
4052;DHT22;2040;50.924;11.604;2023-05-18T07:01:51;8.90;99.90
4052;DHT22;2040;50.924;11.604;2023-05-18T07:04:17;9.00;99.90
4052;DHT22;2040;50.924;11.604;2023-05-18T07:06:44;9.10;99.90
4052;DHT22;2040;50.924;11.604;2023-05-18T07:09:10;9.20;99.90
4052;DHT22;2040;50.924;11.604;2023-05-18T07:11:36;9.30;99.90
4052;DHT22;2040;50.924;11.604;2023-05-18T07:14:05;9.30;99.90
4052;DHT22;2040;50.924;11.604;2023-05-18T07:16:30;9.40;99.90
4052;DHT22;2040;50.924;11.604;2023-05-18T07:18:56;9.50;99.90
4052;DHT22;2040;50.924;11.604;2023-05-18T07:21:25;9.60;99.90
4052;DHT22;2040;50.924;11.604;2023-05-18T07:23:51;9.70;99.90
4052;DHT22;2040;50.924;11.604;2023-05-18T07:26:17;9.80;99.90
4052;DHT22;2040;50.924;11.604;2023-05-18T07:28:43;9.90;99.90
4052;DHT22;2040;50.924;11.604;2023-05-18T07:31:09;10.00;99.90
4052;DHT22;2040;50.924;11.604;2023-05-18T07:33:35;10.00;99.90
4052;DHT22;2040;50.924;11.604;2023-05-18T07:36:00;10.00;99.90
4052;DHT22;2040;50.924;11.604;2023-05-18T07:38:27;10.00;99.90
4052;DHT22;2040;50.924;11.604;2023-05-18T07:40:52;10.00;99.90
4052;DHT22;2040;50.924;11.604;2023-05-18T07:43:18;10.20;99.90
4052;DHT22;2040;50.924;11.604;2023-05-18T07:45:44;10.30;99.90
4052;DHT22;2040;50.924;11.604;2023-05-18T07:48:09;10.40;99.90
4052;DHT22;2040;50.924;11.604;2023-05-18T07:50:35;10.50;99.90
4052;DHT22;2040;50.924;11.604;2023-05-18T07:53:01;10.50;99.90
4052;DHT22;2040;50.924;11.604;2023-05-18T07:55:27;10.70;99.90
4052;DHT22;2040;50.924;11.604;2023-05-18T07:57:52;10.90;99.90
4052;DHT22;2040;50.924;11.604;2023-05-18T08:00:18;11.10;99.90
4052;DHT22;2040;50.924;11.604;2023-05-18T08:02:44;11.10;99.90
4052;DHT22;2040;50.924;11.604;2023-05-18T08:05:10;11.10;99.90
4052;DHT22;2040;50.924;11.604;2023-05-18T08:07:36;11.20;99.90
4052;DHT22;2040;50.924;11.604;2023-05-18T08:10:02;11.40;99.90
4052;DHT22;2040;50.924;11.604;2023-05-18T08:12:28;11.50;99.90
4052;DHT22;2040;50.924;11.604;2023-05-18T08:14:55;11.60;99.90
4052;DHT22;2040;50.924;11.604;2023-05-18T08:17:20;11.70;99.90
4052;DHT22;2040;50.924;11.604;2023-05-18T08:19:46;11.80;99.90
4052;DHT22;2040;50.924;11.604;2023-05-18T08:22:13;11.90;99.90
4052;DHT22;2040;50.924;11.604;2023-05-18T08:24:39;12.20;99.90
4052;DHT22;2040;50.924;11.604;2023-05-18T08:27:04;12.50;99.90
4052;DHT22;2040;50.924;11.604;2023-05-18T08:29:32;12.70;99.90
4052;DHT22;2040;50.924;11.604;2023-05-18T08:31:58;12.60;99.90
4052;DHT22;2040;50.924;11.604;2023-05-18T08:34:23;12.30;99.90
4052;DHT22;2040;50.924;11.604;2023-05-18T08:36:49;12.40;99.90
4052;DHT22;2040;50.924;11.604;2023-05-18T08:39:16;12.70;99.90
4052;DHT22;2040;50.924;11.604;2023-05-18T08:44:21;13.20;99.90
4052;DHT22;2040;50.924;11.604;2023-05-18T08:46:49;13.40;99.90
4052;DHT22;2040;50.924;11.604;2023-05-18T08:49:20;13.30;99.90
4052;DHT22;2040;50.924;11.604;2023-05-18T08:51:50;13.60;99.90
4052;DHT22;2040;50.924;11.604;2023-05-18T08:54:20;13.60;99.90
4052;DHT22;2040;50.924;11.604;2023-05-18T08:56:47;13.40;99.90
4052;DHT22;2040;50.924;11.604;2023-05-18T08:59:15;13.40;99.90
4052;DHT22;2040;50.924;11.604;2023-05-18T09:01:43;13.50;99.90
4052;DHT22;2040;50.924;11.604;2023-05-18T09:04:09;13.50;99.90
4052;DHT22;2040;50.924;11.604;2023-05-18T09:06:35;13.70;99.90
4052;DHT22;2040;50.924;11.604;2023-05-18T09:09:01;14.00;99.90
4052;DHT22;2040;50.924;11.604;2023-05-18T09:11:32;14.00;99.90
4052;DHT22;2040;50.924;11.604;2023-05-18T09:13:59;13.40;99.90
4052;DHT22;2040;50.924;11.604;2023-05-18T09:16:25;13.20;99.90
4052;DHT22;2040;50.924;11.604;2023-05-18T09:18:51;12.80;99.90
4052;DHT22;2040;50.924;11.604;2023-05-18T09:21:17;12.60;99.90
4052;DHT22;2040;50.924;11.604;2023-05-18T09:23:43;12.60;99.90
4052;DHT22;2040;50.924;11.604;2023-05-18T09:26:08;12.80;99.90
4052;DHT22;2040;50.924;11.604;2023-05-18T09:28:40;12.90;99.90
4052;DHT22;2040;50.924;11.604;2023-05-18T09:31:07;13.00;99.90
4052;DHT22;2040;50.924;11.604;2023-05-18T09:33:38;13.20;99.90
4052;DHT22;2040;50.924;11.604;2023-05-18T09:36:09;13.50;99.90
4052;DHT22;2040;50.924;11.604;2023-05-18T09:38:37;13.30;99.90
4052;DHT22;2040;50.924;11.604;2023-05-18T09:41:03;13.60;99.90
4052;DHT22;2040;50.924;11.604;2023-05-18T09:43:34;14.00;99.90
4052;DHT22;2040;50.924;11.604;2023-05-18T09:46:05;14.00;99.90
4052;DHT22;2040;50.924;11.604;2023-05-18T09:48:31;14.00;99.90
4052;DHT22;2040;50.924;11.604;2023-05-18T09:50:58;13.80;99.90
4052;DHT22;2040;50.924;11.604;2023-05-18T09:53:24;13.70;99.90
4052;DHT22;2040;50.924;11.604;2023-05-18T09:55:52;13.70;99.90
4052;DHT22;2040;50.924;11.604;2023-05-18T09:58:18;14.00;99.90
4052;DHT22;2040;50.924;11.604;2023-05-18T10:00:47;13.80;99.90
4052;DHT22;2040;50.924;11.604;2023-05-18T10:03:21;13.70;99.90
4052;DHT22;2040;50.924;11.604;2023-05-18T10:05:48;14.10;99.90
4052;DHT22;2040;50.924;11.604;2023-05-18T10:08:15;14.50;99.90
4052;DHT22;2040;50.924;11.604;2023-05-18T10:10:45;14.30;99.90
4052;DHT22;2040;50.924;11.604;2023-05-18T10:13:15;14.20;99.90
4052;DHT22;2040;50.924;11.604;2023-05-18T10:15:51;14.10;99.90
4052;DHT22;2040;50.924;11.604;2023-05-18T10:18:28;14.00;99.90
4052;DHT22;2040;50.924;11.604;2023-05-18T10:20:56;13.90;99.90
4052;DHT22;2040;50.924;11.604;2023-05-18T10:23:23;13.90;99.90
4052;DHT22;2040;50.924;11.604;2023-05-18T10:25:50;13.90;99.90
4052;DHT22;2040;50.924;11.604;2023-05-18T10:28:21;13.70;99.90
4052;DHT22;2040;50.924;11.604;2023-05-18T10:30:59;13.80;99.90
4052;DHT22;2040;50.924;11.604;2023-05-18T10:33:30;14.00;99.90
4052;DHT22;2040;50.924;11.604;2023-05-18T10:35:58;13.90;99.90
4052;DHT22;2040;50.924;11.604;2023-05-18T10:38:29;13.70;99.90
4052;DHT22;2040;50.924;11.604;2023-05-18T10:40:57;13.90;99.90
4052;DHT22;2040;50.924;11.604;2023-05-18T10:43:25;13.80;99.90
4052;DHT22;2040;50.924;11.604;2023-05-18T10:45:56;13.70;99.90
4052;DHT22;2040;50.924;11.604;2023-05-18T10:48:23;13.80;99.90
4052;DHT22;2040;50.924;11.604;2023-05-18T10:50:51;13.50;99.90
4052;DHT22;2040;50.924;11.604;2023-05-18T10:53:19;14.10;99.90
4052;DHT22;2040;50.924;11.604;2023-05-18T10:55:46;14.30;99.90
4052;DHT22;2040;50.924;11.604;2023-05-18T10:58:17;14.20;99.90
4052;DHT22;2040;50.924;11.604;2023-05-18T11:00:47;14.40;99.90
4052;DHT22;2040;50.924;11.604;2023-05-18T11:03:15;14.50;99.90
4052;DHT22;2040;50.924;11.604;2023-05-18T11:05:41;14.50;99.90
4052;DHT22;2040;50.924;11.604;2023-05-18T11:08:08;14.60;99.90
4052;DHT22;2040;50.924;11.604;2023-05-18T11:10:37;14.90;99.90
4052;DHT22;2040;50.924;11.604;2023-05-18T11:13:04;14.80;99.90
4052;DHT22;2040;50.924;11.604;2023-05-18T11:18:15;15.10;99.90
4052;DHT22;2040;50.924;11.604;2023-05-18T11:20:44;15.60;99.90
4052;DHT22;2040;50.924;11.604;2023-05-18T11:23:10;15.80;99.90
4052;DHT22;2040;50.924;11.604;2023-05-18T11:25:39;15.70;99.90
4052;DHT22;2040;50.924;11.604;2023-05-18T11:28:09;16.00;99.90
4052;DHT22;2040;50.924;11.604;2023-05-18T11:33:08;16.60;99.90
4052;DHT22;2040;50.924;11.604;2023-05-18T11:36:03;16.90;99.90
4052;DHT22;2040;50.924;11.604;2023-05-18T11:38:48;16.80;99.90
4052;DHT22;2040;50.924;11.604;2023-05-18T11:46:39;16.40;99.90
4052;DHT22;2040;50.924;11.604;2023-05-18T11:49:08;16.40;99.90
4052;DHT22;2040;50.924;11.604;2023-05-18T11:52:01;17.00;99.90
4052;DHT22;2040;50.924;11.604;2023-05-18T11:54:27;17.40;99.90
4052;DHT22;2040;50.924;11.604;2023-05-18T11:56:53;17.30;99.90
4052;DHT22;2040;50.924;11.604;2023-05-18T11:59:41;17.70;99.90
4052;DHT22;2040;50.924;11.604;2023-05-18T12:02:08;17.90;99.90
4052;DHT22;2040;50.924;11.604;2023-05-18T12:04:45;17.30;99.90
4052;DHT22;2040;50.924;11.604;2023-05-18T12:07:16;17.10;99.90
4052;DHT22;2040;50.924;11.604;2023-05-18T12:09:43;17.60;99.90
4052;DHT22;2040;50.924;11.604;2023-05-18T12:12:10;17.20;99.90
4052;DHT22;2040;50.924;11.604;2023-05-18T12:14:41;16.70;99.90
4052;DHT22;2040;50.924;11.604;2023-05-18T12:17:07;16.60;99.90
4052;DHT22;2040;50.924;11.604;2023-05-18T12:19:43;16.70;99.90
4052;DHT22;2040;50.924;11.604;2023-05-18T12:22:10;17.00;99.90
4052;DHT22;2040;50.924;11.604;2023-05-18T12:24:39;17.00;99.90
4052;DHT22;2040;50.924;11.604;2023-05-18T12:27:06;16.60;99.90
4052;DHT22;2040;50.924;11.604;2023-05-18T12:29:36;16.50;99.90
4052;DHT22;2040;50.924;11.604;2023-05-18T12:32:07;16.40;99.90
4052;DHT22;2040;50.924;11.604;2023-05-18T12:34:34;16.90;99.90
4052;DHT22;2040;50.924;11.604;2023-05-18T12:36:59;17.00;99.90
4052;DHT22;2040;50.924;11.604;2023-05-18T12:39:25;17.00;99.90
4052;DHT22;2040;50.924;11.604;2023-05-18T12:41:51;16.70;99.90
4052;DHT22;2040;50.924;11.604;2023-05-18T12:44:16;16.70;99.90
4052;DHT22;2040;50.924;11.604;2023-05-18T12:46:42;16.80;99.90
4052;DHT22;2040;50.924;11.604;2023-05-18T12:49:09;16.90;99.90
4052;DHT22;2040;50.924;11.604;2023-05-18T12:51:36;16.90;99.90
4052;DHT22;2040;50.924;11.604;2023-05-18T12:54:03;16.90;99.90
4052;DHT22;2040;50.924;11.604;2023-05-18T12:56:52;16.70;99.90
4052;DHT22;2040;50.924;11.604;2023-05-18T12:59:23;16.80;99.90
4052;DHT22;2040;50.924;11.604;2023-05-18T13:01:49;16.80;99.90
4052;DHT22;2040;50.924;11.604;2023-05-18T13:04:15;16.80;99.90
4052;DHT22;2040;50.924;11.604;2023-05-18T13:06:40;16.90;99.90
4052;DHT22;2040;50.924;11.604;2023-05-18T13:09:11;17.30;99.90
4052;DHT22;2040;50.924;11.604;2023-05-18T13:11:36;17.00;99.90
4052;DHT22;2040;50.924;11.604;2023-05-18T13:14:03;16.90;99.90
4052;DHT22;2040;50.924;11.604;2023-05-18T13:16:30;16.90;99.90
4052;DHT22;2040;50.924;11.604;2023-05-18T13:18:57;16.80;99.90
4052;DHT22;2040;50.924;11.604;2023-05-18T13:21:23;16.70;99.90
4052;DHT22;2040;50.924;11.604;2023-05-18T13:23:49;16.40;99.90
4052;DHT22;2040;50.924;11.604;2023-05-18T13:26:14;16.70;99.90
4052;DHT22;2040;50.924;11.604;2023-05-18T13:28:40;17.00;99.90
4052;DHT22;2040;50.924;11.604;2023-05-18T13:31:06;16.70;99.90
4052;DHT22;2040;50.924;11.604;2023-05-18T13:33:31;16.40;99.90
4052;DHT22;2040;50.924;11.604;2023-05-18T13:35:57;16.10;99.90
4052;DHT22;2040;50.924;11.604;2023-05-18T13:38:23;16.10;99.90
4052;DHT22;2040;50.924;11.604;2023-05-18T13:40:48;16.00;99.90
4052;DHT22;2040;50.924;11.604;2023-05-18T13:43:14;15.90;99.90
4052;DHT22;2040;50.924;11.604;2023-05-18T13:45:42;16.00;99.90
4052;DHT22;2040;50.924;11.604;2023-05-18T13:48:08;16.10;99.90
4052;DHT22;2040;50.924;11.604;2023-05-18T13:50:34;15.90;99.90
4052;DHT22;2040;50.924;11.604;2023-05-18T13:53:00;16.10;99.90
4052;DHT22;2040;50.924;11.604;2023-05-18T13:55:26;16.00;99.90
4052;DHT22;2040;50.924;11.604;2023-05-18T13:57:51;16.00;99.90
4052;DHT22;2040;50.924;11.604;2023-05-18T14:00:17;16.20;99.90
4052;DHT22;2040;50.924;11.604;2023-05-18T14:02:46;16.10;99.90
4052;DHT22;2040;50.924;11.604;2023-05-18T14:05:12;16.10;99.90
4052;DHT22;2040;50.924;11.604;2023-05-18T14:07:39;16.10;99.90
4052;DHT22;2040;50.924;11.604;2023-05-18T14:10:06;16.10;99.90
4052;DHT22;2040;50.924;11.604;2023-05-18T14:12:32;16.20;99.90
4052;DHT22;2040;50.924;11.604;2023-05-18T14:14:58;16.20;99.90
4052;DHT22;2040;50.924;11.604;2023-05-18T14:17:24;16.30;99.90
4052;DHT22;2040;50.924;11.604;2023-05-18T14:19:51;16.20;99.90
4052;DHT22;2040;50.924;11.604;2023-05-18T14:22:17;16.00;99.90
4052;DHT22;2040;50.924;11.604;2023-05-18T14:24:43;15.90;99.90
4052;DHT22;2040;50.924;11.604;2023-05-18T14:27:09;15.90;99.90
4052;DHT22;2040;50.924;11.604;2023-05-18T14:29:35;16.00;99.90
4052;DHT22;2040;50.924;11.604;2023-05-18T14:32:01;16.20;99.90
4052;DHT22;2040;50.924;11.604;2023-05-18T14:34:26;16.40;99.90
4052;DHT22;2040;50.924;11.604;2023-05-18T14:36:52;16.50;99.90
4052;DHT22;2040;50.924;11.604;2023-05-18T14:39:18;16.80;99.90
4052;DHT22;2040;50.924;11.604;2023-05-18T14:41:44;17.10;99.90
4052;DHT22;2040;50.924;11.604;2023-05-18T14:44:09;16.80;99.90
4052;DHT22;2040;50.924;11.604;2023-05-18T14:46:35;16.60;99.90
4052;DHT22;2040;50.924;11.604;2023-05-18T14:49:02;16.30;99.90
4052;DHT22;2040;50.924;11.604;2023-05-18T14:51:27;16.40;99.90
4052;DHT22;2040;50.924;11.604;2023-05-18T14:53:53;16.50;99.90
4052;DHT22;2040;50.924;11.604;2023-05-18T14:56:18;16.10;99.90
4052;DHT22;2040;50.924;11.604;2023-05-18T14:58:44;16.00;99.90
4052;DHT22;2040;50.924;11.604;2023-05-18T15:01:10;15.90;99.90
4052;DHT22;2040;50.924;11.604;2023-05-18T15:03:35;15.90;99.90
4052;DHT22;2040;50.924;11.604;2023-05-18T15:06:01;15.60;99.90
4052;DHT22;2040;50.924;11.604;2023-05-18T15:08:26;15.40;99.90
4052;DHT22;2040;50.924;11.604;2023-05-18T15:10:52;15.50;99.90
4052;DHT22;2040;50.924;11.604;2023-05-18T15:13:18;15.60;99.90
4052;DHT22;2040;50.924;11.604;2023-05-18T15:15:43;15.50;99.90
4052;DHT22;2040;50.924;11.604;2023-05-18T15:18:09;15.50;99.90
4052;DHT22;2040;50.924;11.604;2023-05-18T15:20:36;15.50;99.90
4052;DHT22;2040;50.924;11.604;2023-05-18T15:23:01;15.60;99.90
4052;DHT22;2040;50.924;11.604;2023-05-18T15:25:27;15.60;99.90
4052;DHT22;2040;50.924;11.604;2023-05-18T15:27:54;15.50;99.90
4052;DHT22;2040;50.924;11.604;2023-05-18T15:30:19;15.50;99.90
4052;DHT22;2040;50.924;11.604;2023-05-18T15:32:45;15.50;99.90
4052;DHT22;2040;50.924;11.604;2023-05-18T15:35:11;15.50;99.90
4052;DHT22;2040;50.924;11.604;2023-05-18T15:37:37;15.40;99.90
4052;DHT22;2040;50.924;11.604;2023-05-18T15:40:03;15.40;99.90
4052;DHT22;2040;50.924;11.604;2023-05-18T15:42:29;15.30;99.90
4052;DHT22;2040;50.924;11.604;2023-05-18T15:44:55;15.20;99.90
4052;DHT22;2040;50.924;11.604;2023-05-18T15:47:20;15.10;99.90
4052;DHT22;2040;50.924;11.604;2023-05-18T15:49:46;15.40;99.90
4052;DHT22;2040;50.924;11.604;2023-05-18T15:52:11;15.40;99.90
4052;DHT22;2040;50.924;11.604;2023-05-18T15:54:37;15.30;99.90
4052;DHT22;2040;50.924;11.604;2023-05-18T15:57:03;15.20;99.90
4052;DHT22;2040;50.924;11.604;2023-05-18T15:59:29;15.20;99.90
4052;DHT22;2040;50.924;11.604;2023-05-18T16:01:54;15.10;99.90
4052;DHT22;2040;50.924;11.604;2023-05-18T16:04:20;15.10;99.90
4052;DHT22;2040;50.924;11.604;2023-05-18T16:06:46;15.10;99.90
4052;DHT22;2040;50.924;11.604;2023-05-18T16:09:11;15.20;99.90
4052;DHT22;2040;50.924;11.604;2023-05-18T16:11:37;15.30;99.90
4052;DHT22;2040;50.924;11.604;2023-05-18T16:14:03;15.50;99.90